sensor_id;sensor_type;location;lat;lon;timestamp;P1;durP1;ratioP1;P2;durP2;ratioP2
9254;SDS011;4663;49.120;9.730;2023-06-14T00:01:27;25.70;;;24.30;;
9254;SDS011;4663;49.120;9.730;2023-06-14T00:10:25;30.60;;;29.00;;
9254;SDS011;4663;49.120;9.730;2023-06-14T00:18:45;34.17;;;32.37;;
9254;SDS011;4663;49.120;9.730;2023-06-14T00:21:14;34.20;;;32.50;;
9254;SDS011;4663;49.120;9.730;2023-06-14T00:23:58;34.90;;;32.90;;
9254;SDS011;4663;49.120;9.730;2023-06-14T00:26:26;33.30;;;31.60;;
9254;SDS011;4663;49.120;9.730;2023-06-14T00:31:35;32.60;;;30.87;;
9254;SDS011;4663;49.120;9.730;2023-06-14T00:34:01;33.80;;;32.10;;
9254;SDS011;4663;49.120;9.730;2023-06-14T00:36:38;33.77;;;32.07;;
9254;SDS011;4663;49.120;9.730;2023-06-14T00:39:07;38.77;;;36.77;;
9254;SDS011;4663;49.120;9.730;2023-06-14T00:41:35;34.37;;;32.50;;
9254;SDS011;4663;49.120;9.730;2023-06-14T00:44:07;36.63;;;34.73;;
9254;SDS011;4663;49.120;9.730;2023-06-14T00:52:23;36.23;;;34.33;;
9254;SDS011;4663;49.120;9.730;2023-06-14T00:54:49;35.50;;;33.53;;
9254;SDS011;4663;49.120;9.730;2023-06-14T00:57:32;36.63;;;34.50;;
9254;SDS011;4663;49.120;9.730;2023-06-14T01:16:31;36.27;;;34.43;;
9254;SDS011;4663;49.120;9.730;2023-06-14T01:19:15;40.57;;;38.37;;
9254;SDS011;4663;49.120;9.730;2023-06-14T01:21:41;41.57;;;39.37;;
9254;SDS011;4663;49.120;9.730;2023-06-14T01:24:09;39.17;;;37.13;;
9254;SDS011;4663;49.120;9.730;2023-06-14T01:26:36;38.87;;;36.73;;
9254;SDS011;4663;49.120;9.730;2023-06-14T01:29:06;42.00;;;39.80;;
9254;SDS011;4663;49.120;9.730;2023-06-14T01:31:50;39.77;;;37.77;;
9254;SDS011;4663;49.120;9.730;2023-06-14T01:34:22;42.90;;;40.60;;
9254;SDS011;4663;49.120;9.730;2023-06-14T01:39:53;34.60;;;32.80;;
9254;SDS011;4663;49.120;9.730;2023-06-14T01:42:20;33.73;;;31.80;;
9254;SDS011;4663;49.120;9.730;2023-06-14T01:44:49;33.20;;;31.37;;
9254;SDS011;4663;49.120;9.730;2023-06-14T01:47:36;32.27;;;30.47;;
9254;SDS011;4663;49.120;9.730;2023-06-14T01:50:11;27.87;;;26.17;;
9254;SDS011;4663;49.120;9.730;2023-06-14T01:52:39;29.27;;;27.47;;
9254;SDS011;4663;49.120;9.730;2023-06-14T01:55:05;26.17;;;24.77;;
9254;SDS011;4663;49.120;9.730;2023-06-14T01:57:31;28.03;;;26.50;;
9254;SDS011;4663;49.120;9.730;2023-06-14T02:00:02;29.77;;;28.00;;
9254;SDS011;4663;49.120;9.730;2023-06-14T02:02:29;29.10;;;27.53;;
9254;SDS011;4663;49.120;9.730;2023-06-14T02:04:54;25.30;;;23.83;;
9254;SDS011;4663;49.120;9.730;2023-06-14T02:13:47;27.43;;;25.97;;
9254;SDS011;4663;49.120;9.730;2023-06-14T02:16:15;27.83;;;26.17;;
9254;SDS011;4663;49.120;9.730;2023-06-14T02:18:42;27.17;;;25.63;;
9254;SDS011;4663;49.120;9.730;2023-06-14T02:24:17;28.43;;;26.83;;
9254;SDS011;4663;49.120;9.730;2023-06-14T02:27:01;27.63;;;26.07;;
9254;SDS011;4663;49.120;9.730;2023-06-14T02:29:39;28.20;;;26.70;;
9254;SDS011;4663;49.120;9.730;2023-06-14T02:32:04;27.67;;;25.87;;
9254;SDS011;4663;49.120;9.730;2023-06-14T02:34:38;27.20;;;25.70;;
9254;SDS011;4663;49.120;9.730;2023-06-14T02:37:12;26.60;;;24.93;;
9254;SDS011;4663;49.120;9.730;2023-06-14T02:39:38;27.00;;;25.50;;
9254;SDS011;4663;49.120;9.730;2023-06-14T02:42:41;28.20;;;26.60;;
9254;SDS011;4663;49.120;9.730;2023-06-14T02:45:18;32.60;;;30.57;;
9254;SDS011;4663;49.120;9.730;2023-06-14T02:47:44;28.43;;;26.63;;
9254;SDS011;4663;49.120;9.730;2023-06-14T02:50:10;29.10;;;27.37;;
9254;SDS011;4663;49.120;9.730;2023-06-14T02:52:42;28.77;;;27.17;;
9254;SDS011;4663;49.120;9.730;2023-06-14T02:55:27;31.17;;;29.13;;
9254;SDS011;4663;49.120;9.730;2023-06-14T02:57:56;27.03;;;25.53;;
9254;SDS011;4663;49.120;9.730;2023-06-14T03:00:22;28.20;;;26.60;;
9254;SDS011;4663;49.120;9.730;2023-06-14T03:05:50;29.57;;;27.73;;
9254;SDS011;4663;49.120;9.730;2023-06-14T03:08:19;28.83;;;26.83;;
9254;SDS011;4663;49.120;9.730;2023-06-14T03:10:47;29.43;;;27.73;;
9254;SDS011;4663;49.120;9.730;2023-06-14T03:13:37;30.20;;;28.30;;
9254;SDS011;4663;49.120;9.730;2023-06-14T03:20:08;32.80;;;31.03;;
9254;SDS011;4663;49.120;9.730;2023-06-14T03:22:17;31.23;;;29.50;;
9254;SDS011;4663;49.120;9.730;2023-06-14T03:24:52;31.63;;;29.87;;
9254;SDS011;4663;49.120;9.730;2023-06-14T03:27:19;30.03;;;28.40;;
9254;SDS011;4663;49.120;9.730;2023-06-14T03:33:26;30.27;;;28.57;;
9254;SDS011;4663;49.120;9.730;2023-06-14T03:36:01;31.40;;;29.57;;
9254;SDS011;4663;49.120;9.730;2023-06-14T03:38:27;31.57;;;29.60;;
9254;SDS011;4663;49.120;9.730;2023-06-14T03:41:08;30.20;;;28.50;;
9254;SDS011;4663;49.120;9.730;2023-06-14T03:46:32;31.87;;;30.17;;
9254;SDS011;4663;49.120;9.730;2023-06-14T03:48:58;30.03;;;28.37;;
9254;SDS011;4663;49.120;9.730;2023-06-14T03:51:23;29.97;;;28.27;;
9254;SDS011;4663;49.120;9.730;2023-06-14T03:53:50;31.97;;;30.17;;
9254;SDS011;4663;49.120;9.730;2023-06-14T03:56:21;28.87;;;27.27;;
9254;SDS011;4663;49.120;9.730;2023-06-14T04:02:14;35.17;;;33.07;;
9254;SDS011;4663;49.120;9.730;2023-06-14T04:04:46;60.07;;;56.90;;
9254;SDS011;4663;49.120;9.730;2023-06-14T04:07:11;60.33;;;57.20;;
9254;SDS011;4663;49.120;9.730;2023-06-14T04:10:07;48.55;;;46.05;;
9254;SDS011;4663;49.120;9.730;2023-06-14T04:12:36;32.35;;;30.60;;
9254;SDS011;4663;49.120;9.730;2023-06-14T04:15:01;36.72;;;34.78;;
9254;SDS011;4663;49.120;9.730;2023-06-14T04:17:30;40.85;;;38.75;;
9254;SDS011;4663;49.120;9.730;2023-06-14T04:22:57;45.92;;;43.60;;
9254;SDS011;4663;49.120;9.730;2023-06-14T04:32:04;36.17;;;34.15;;
9254;SDS011;4663;49.120;9.730;2023-06-14T04:34:43;25.00;;;23.60;;
9254;SDS011;4663;49.120;9.730;2023-06-14T04:37:15;25.42;;;24.08;;
9254;SDS011;4663;49.120;9.730;2023-06-14T04:39:40;27.30;;;25.85;;
9254;SDS011;4663;49.120;9.730;2023-06-14T04:42:25;29.00;;;27.20;;
9254;SDS011;4663;49.120;9.730;2023-06-14T04:45:11;40.58;;;38.45;;
9254;SDS011;4663;49.120;9.730;2023-06-14T04:47:37;44.50;;;42.20;;
9254;SDS011;4663;49.120;9.730;2023-06-14T04:53:29;27.60;;;26.02;;
9254;SDS011;4663;49.120;9.730;2023-06-14T04:58:46;44.05;;;41.70;;
9254;SDS011;4663;49.120;9.730;2023-06-14T05:01:14;42.83;;;40.28;;
9254;SDS011;4663;49.120;9.730;2023-06-14T05:03:49;34.80;;;32.88;;
9254;SDS011;4663;49.120;9.730;2023-06-14T05:09:37;42.13;;;39.92;;
9254;SDS011;4663;49.120;9.730;2023-06-14T05:12:08;39.85;;;37.78;;
9254;SDS011;4663;49.120;9.730;2023-06-14T05:17:23;37.33;;;35.30;;
9254;SDS011;4663;49.120;9.730;2023-06-14T05:20:07;33.92;;;32.15;;
9254;SDS011;4663;49.120;9.730;2023-06-14T05:22:37;33.60;;;31.63;;
9254;SDS011;4663;49.120;9.730;2023-06-14T05:25:12;34.50;;;32.65;;
9254;SDS011;4663;49.120;9.730;2023-06-14T05:27:43;35.67;;;33.85;;
9254;SDS011;4663;49.120;9.730;2023-06-14T05:32:43;26.23;;;24.80;;
9254;SDS011;4663;49.120;9.730;2023-06-14T05:35:09;25.65;;;24.30;;
9254;SDS011;4663;49.120;9.730;2023-06-14T05:37:35;25.30;;;23.88;;
9254;SDS011;4663;49.120;9.730;2023-06-14T05:40:01;26.58;;;25.10;;
9254;SDS011;4663;49.120;9.730;2023-06-14T05:42:29;25.95;;;24.55;;
9254;SDS011;4663;49.120;9.730;2023-06-14T05:44:55;26.58;;;25.10;;
9254;SDS011;4663;49.120;9.730;2023-06-14T05:47:20;26.25;;;24.85;;
9254;SDS011;4663;49.120;9.730;2023-06-14T05:49:46;27.88;;;26.25;;
9254;SDS011;4663;49.120;9.730;2023-06-14T05:52:11;28.35;;;26.65;;
9254;SDS011;4663;49.120;9.730;2023-06-14T05:54:38;22.95;;;21.52;;
9254;SDS011;4663;49.120;9.730;2023-06-14T05:57:03;24.30;;;22.90;;
9254;SDS011;4663;49.120;9.730;2023-06-14T05:59:31;21.42;;;20.23;;
9254;SDS011;4663;49.120;9.730;2023-06-14T06:01:57;22.48;;;21.08;;
9254;SDS011;4663;49.120;9.730;2023-06-14T06:04:23;21.92;;;20.33;;
9254;SDS011;4663;49.120;9.730;2023-06-14T06:06:48;23.17;;;21.80;;
9254;SDS011;4663;49.120;9.730;2023-06-14T06:09:14;23.48;;;22.23;;
9254;SDS011;4663;49.120;9.730;2023-06-14T06:11:39;21.33;;;20.13;;
9254;SDS011;4663;49.120;9.730;2023-06-14T06:14:05;21.15;;;19.80;;
9254;SDS011;4663;49.120;9.730;2023-06-14T06:16:31;24.02;;;22.63;;
9254;SDS011;4663;49.120;9.730;2023-06-14T06:18:56;22.85;;;21.58;;
9254;SDS011;4663;49.120;9.730;2023-06-14T06:21:21;24.30;;;23.00;;
9254;SDS011;4663;49.120;9.730;2023-06-14T06:23:47;26.50;;;25.10;;
9254;SDS011;4663;49.120;9.730;2023-06-14T06:26:12;25.65;;;23.95;;
9254;SDS011;4663;49.120;9.730;2023-06-14T06:28:38;22.50;;;21.25;;
9254;SDS011;4663;49.120;9.730;2023-06-14T06:31:03;22.88;;;21.50;;
9254;SDS011;4663;49.120;9.730;2023-06-14T06:33:28;22.60;;;21.10;;
9254;SDS011;4663;49.120;9.730;2023-06-14T06:35:54;24.15;;;22.73;;
9254;SDS011;4663;49.120;9.730;2023-06-14T06:38:20;22.75;;;21.45;;
9254;SDS011;4663;49.120;9.730;2023-06-14T06:40:45;24.23;;;22.73;;
9254;SDS011;4663;49.120;9.730;2023-06-14T06:43:11;22.30;;;20.92;;
9254;SDS011;4663;49.120;9.730;2023-06-14T06:45:38;21.63;;;20.52;;
9254;SDS011;4663;49.120;9.730;2023-06-14T06:48:05;24.80;;;23.08;;
9254;SDS011;4663;49.120;9.730;2023-06-14T06:50:30;22.00;;;20.80;;
9254;SDS011;4663;49.120;9.730;2023-06-14T06:52:56;21.48;;;20.38;;
9254;SDS011;4663;49.120;9.730;2023-06-14T06:55:22;23.90;;;22.50;;
9254;SDS011;4663;49.120;9.730;2023-06-14T06:57:47;23.33;;;22.10;;
9254;SDS011;4663;49.120;9.730;2023-06-14T07:00:14;21.73;;;20.50;;
9254;SDS011;4663;49.120;9.730;2023-06-14T07:02:40;22.55;;;21.27;;
9254;SDS011;4663;49.120;9.730;2023-06-14T07:05:06;21.45;;;20.13;;
9254;SDS011;4663;49.120;9.730;2023-06-14T07:07:32;23.10;;;21.80;;
9254;SDS011;4663;49.120;9.730;2023-06-14T07:09:57;23.58;;;22.30;;
9254;SDS011;4663;49.120;9.730;2023-06-14T07:12:23;23.88;;;22.67;;
9254;SDS011;4663;49.120;9.730;2023-06-14T07:14:48;25.25;;;23.80;;
9254;SDS011;4663;49.120;9.730;2023-06-14T07:17:14;25.05;;;23.65;;
9254;SDS011;4663;49.120;9.730;2023-06-14T07:19:39;24.90;;;23.20;;
9254;SDS011;4663;49.120;9.730;2023-06-14T07:22:04;24.15;;;22.80;;
9254;SDS011;4663;49.120;9.730;2023-06-14T07:24:30;23.13;;;21.90;;
9254;SDS011;4663;49.120;9.730;2023-06-14T07:26:55;22.02;;;20.70;;
9254;SDS011;4663;49.120;9.730;2023-06-14T07:29:21;23.83;;;22.58;;
9254;SDS011;4663;49.120;9.730;2023-06-14T07:31:46;25.55;;;23.45;;
9254;SDS011;4663;49.120;9.730;2023-06-14T07:34:12;24.27;;;22.98;;
9254;SDS011;4663;49.120;9.730;2023-06-14T07:36:37;25.52;;;24.13;;
9254;SDS011;4663;49.120;9.730;2023-06-14T07:39:03;24.95;;;23.27;;
9254;SDS011;4663;49.120;9.730;2023-06-14T07:41:28;20.95;;;19.85;;
9254;SDS011;4663;49.120;9.730;2023-06-14T07:43:54;21.92;;;20.65;;
9254;SDS011;4663;49.120;9.730;2023-06-14T07:46:20;21.42;;;20.33;;
9254;SDS011;4663;49.120;9.730;2023-06-14T07:48:45;21.60;;;20.27;;
9254;SDS011;4663;49.120;9.730;2023-06-14T07:51:11;21.98;;;20.70;;
9254;SDS011;4663;49.120;9.730;2023-06-14T07:53:36;21.80;;;20.60;;
9254;SDS011;4663;49.120;9.730;2023-06-14T07:56:01;20.85;;;19.55;;
9254;SDS011;4663;49.120;9.730;2023-06-14T07:58:27;20.95;;;19.80;;
9254;SDS011;4663;49.120;9.730;2023-06-14T08:00:53;22.10;;;20.80;;
9254;SDS011;4663;49.120;9.730;2023-06-14T08:03:18;22.88;;;21.40;;
9254;SDS011;4663;49.120;9.730;2023-06-14T08:05:44;21.17;;;20.08;;
9254;SDS011;4663;49.120;9.730;2023-06-14T08:08:10;23.48;;;22.17;;
9254;SDS011;4663;49.120;9.730;2023-06-14T08:10:35;24.75;;;23.27;;
9254;SDS011;4663;49.120;9.730;2023-06-14T08:13:00;22.75;;;21.55;;
9254;SDS011;4663;49.120;9.730;2023-06-14T08:15:26;20.15;;;19.05;;
9254;SDS011;4663;49.120;9.730;2023-06-14T08:17:52;21.40;;;20.30;;
9254;SDS011;4663;49.120;9.730;2023-06-14T08:20:17;25.50;;;23.95;;
9254;SDS011;4663;49.120;9.730;2023-06-14T08:22:43;26.98;;;25.65;;
9254;SDS011;4663;49.120;9.730;2023-06-14T08:25:08;25.70;;;23.92;;
9254;SDS011;4663;49.120;9.730;2023-06-14T08:27:34;28.25;;;26.75;;
9254;SDS011;4663;49.120;9.730;2023-06-14T08:30:00;25.88;;;24.58;;
9254;SDS011;4663;49.120;9.730;2023-06-14T08:32:27;28.20;;;26.70;;
9254;SDS011;4663;49.120;9.730;2023-06-14T08:34:52;28.98;;;27.35;;
9254;SDS011;4663;49.120;9.730;2023-06-14T08:37:18;23.15;;;21.77;;
9254;SDS011;4663;49.120;9.730;2023-06-14T08:39:43;20.60;;;19.50;;
9254;SDS011;4663;49.120;9.730;2023-06-14T08:42:09;23.52;;;22.30;;
9254;SDS011;4663;49.120;9.730;2023-06-14T08:44:35;21.27;;;19.98;;
9254;SDS011;4663;49.120;9.730;2023-06-14T08:47:01;21.95;;;20.58;;
9254;SDS011;4663;49.120;9.730;2023-06-14T08:49:28;22.92;;;21.67;;
9254;SDS011;4663;49.120;9.730;2023-06-14T08:51:59;23.23;;;21.75;;
9254;SDS011;4663;49.120;9.730;2023-06-14T08:54:29;25.45;;;23.52;;
9254;SDS011;4663;49.120;9.730;2023-06-14T08:57:01;26.55;;;25.15;;
9254;SDS011;4663;49.120;9.730;2023-06-14T08:59:32;26.92;;;25.42;;
9254;SDS011;4663;49.120;9.730;2023-06-14T09:02:04;27.10;;;25.80;;
9254;SDS011;4663;49.120;9.730;2023-06-14T09:04:31;26.85;;;25.30;;
9254;SDS011;4663;49.120;9.730;2023-06-14T09:06:57;26.08;;;24.70;;
9254;SDS011;4663;49.120;9.730;2023-06-14T09:09:23;24.15;;;22.95;;
9254;SDS011;4663;49.120;9.730;2023-06-14T09:11:52;24.98;;;23.63;;
9254;SDS011;4663;49.120;9.730;2023-06-14T09:14:21;26.42;;;25.02;;
9254;SDS011;4663;49.120;9.730;2023-06-14T09:16:51;25.65;;;24.23;;
9254;SDS011;4663;49.120;9.730;2023-06-14T09:19:21;22.35;;;21.15;;
9254;SDS011;4663;49.120;9.730;2023-06-14T09:21:48;22.33;;;20.98;;
9254;SDS011;4663;49.120;9.730;2023-06-14T09:24:13;21.88;;;20.48;;
9254;SDS011;4663;49.120;9.730;2023-06-14T09:26:39;25.15;;;23.77;;
9254;SDS011;4663;49.120;9.730;2023-06-14T09:29:05;23.00;;;21.23;;
9254;SDS011;4663;49.120;9.730;2023-06-14T09:31:31;23.63;;;22.23;;
9254;SDS011;4663;49.120;9.730;2023-06-14T09:33:57;21.50;;;20.10;;
9254;SDS011;4663;49.120;9.730;2023-06-14T09:36:26;21.60;;;20.30;;
9254;SDS011;4663;49.120;9.730;2023-06-14T09:38:59;23.08;;;21.85;;
9254;SDS011;4663;49.120;9.730;2023-06-14T09:41:36;24.33;;;23.02;;
9254;SDS011;4663;49.120;9.730;2023-06-14T09:44:06;22.73;;;21.33;;
9254;SDS011;4663;49.120;9.730;2023-06-14T09:46:33;25.95;;;24.40;;
9254;SDS011;4663;49.120;9.730;2023-06-14T09:49:00;21.98;;;20.80;;
9254;SDS011;4663;49.120;9.730;2023-06-14T09:51:27;20.77;;;19.67;;
9254;SDS011;4663;49.120;9.730;2023-06-14T09:53:55;28.95;;;27.20;;
9254;SDS011;4663;49.120;9.730;2023-06-14T09:56:29;30.08;;;28.52;;
9254;SDS011;4663;49.120;9.730;2023-06-14T09:58:56;32.42;;;30.42;;
9254;SDS011;4663;49.120;9.730;2023-06-14T10:01:26;27.63;;;26.20;;
9254;SDS011;4663;49.120;9.730;2023-06-14T10:03:55;25.50;;;23.73;;
9254;SDS011;4663;49.120;9.730;2023-06-14T10:06:26;25.95;;;24.05;;
9254;SDS011;4663;49.120;9.730;2023-06-14T10:08:54;23.77;;;22.50;;
9254;SDS011;4663;49.120;9.730;2023-06-14T10:11:22;24.85;;;23.48;;
9254;SDS011;4663;49.120;9.730;2023-06-14T10:13:50;27.08;;;25.65;;
9254;SDS011;4663;49.120;9.730;2023-06-14T10:19:42;24.65;;;23.38;;
9254;SDS011;4663;49.120;9.730;2023-06-14T10:24:33;27.35;;;25.95;;
9254;SDS011;4663;49.120;9.730;2023-06-14T10:27:05;23.70;;;22.25;;
9254;SDS011;4663;49.120;9.730;2023-06-14T10:29:35;20.80;;;19.73;;
9254;SDS011;4663;49.120;9.730;2023-06-14T10:32:26;23.52;;;22.17;;
9254;SDS011;4663;49.120;9.730;2023-06-14T10:37:25;21.55;;;19.42;;
9254;SDS011;4663;49.120;9.730;2023-06-14T10:39:50;21.50;;;20.30;;
9254;SDS011;4663;49.120;9.730;2023-06-14T10:42:18;22.48;;;21.30;;
9254;SDS011;4663;49.120;9.730;2023-06-14T10:44:51;22.00;;;20.70;;
9254;SDS011;4663;49.120;9.730;2023-06-14T10:49:54;23.50;;;22.20;;
9254;SDS011;4663;49.120;9.730;2023-06-14T10:52:21;23.27;;;21.73;;
9254;SDS011;4663;49.120;9.730;2023-06-14T10:55:01;24.63;;;23.13;;
9254;SDS011;4663;49.120;9.730;2023-06-14T10:57:31;22.50;;;21.38;;
9254;SDS011;4663;49.120;9.730;2023-06-14T10:59:59;23.08;;;21.88;;
9254;SDS011;4663;49.120;9.730;2023-06-14T11:04:50;24.40;;;22.90;;
9254;SDS011;4663;49.120;9.730;2023-06-14T11:12:47;23.42;;;22.05;;
9254;SDS011;4663;49.120;9.730;2023-06-14T11:15:14;23.80;;;22.23;;
9254;SDS011;4663;49.120;9.730;2023-06-14T11:17:49;24.50;;;23.30;;
9254;SDS011;4663;49.120;9.730;2023-06-14T11:20:16;21.65;;;20.58;;
9254;SDS011;4663;49.120;9.730;2023-06-14T11:22:42;22.65;;;21.45;;
9254;SDS011;4663;49.120;9.730;2023-06-14T11:25:13;20.83;;;19.35;;
9254;SDS011;4663;49.120;9.730;2023-06-14T11:27:42;23.63;;;22.33;;
9254;SDS011;4663;49.120;9.730;2023-06-14T11:30:08;22.65;;;21.45;;
9254;SDS011;4663;49.120;9.730;2023-06-14T11:32:35;23.90;;;22.60;;
9254;SDS011;4663;49.120;9.730;2023-06-14T11:35:02;24.88;;;23.58;;
9254;SDS011;4663;49.120;9.730;2023-06-14T11:37:29;21.58;;;20.27;;
9254;SDS011;4663;49.120;9.730;2023-06-14T11:39:56;22.65;;;21.15;;
9254;SDS011;4663;49.120;9.730;2023-06-14T11:42:22;21.63;;;20.42;;
9254;SDS011;4663;49.120;9.730;2023-06-14T11:44:49;21.35;;;20.15;;
9254;SDS011;4663;49.120;9.730;2023-06-14T11:47:14;22.73;;;21.52;;
9254;SDS011;4663;49.120;9.730;2023-06-14T11:49:40;23.42;;;22.08;;
9254;SDS011;4663;49.120;9.730;2023-06-14T11:52:06;22.45;;;21.20;;
9254;SDS011;4663;49.120;9.730;2023-06-14T11:54:32;21.80;;;20.58;;
9254;SDS011;4663;49.120;9.730;2023-06-14T11:56:58;22.52;;;21.08;;
9254;SDS011;4663;49.120;9.730;2023-06-14T11:59:24;20.13;;;18.95;;
9254;SDS011;4663;49.120;9.730;2023-06-14T12:01:50;21.00;;;19.75;;
9254;SDS011;4663;49.120;9.730;2023-06-14T12:04:26;20.85;;;19.77;;
9254;SDS011;4663;49.120;9.730;2023-06-14T12:06:52;20.95;;;19.90;;
9254;SDS011;4663;49.120;9.730;2023-06-14T12:09:20;19.33;;;18.27;;
9254;SDS011;4663;49.120;9.730;2023-06-14T12:11:48;21.35;;;20.20;;
9254;SDS011;4663;49.120;9.730;2023-06-14T12:14:14;20.90;;;19.88;;
9254;SDS011;4663;49.120;9.730;2023-06-14T12:16:40;19.85;;;18.75;;
9254;SDS011;4663;49.120;9.730;2023-06-14T12:19:11;19.05;;;18.02;;
9254;SDS011;4663;49.120;9.730;2023-06-14T12:21:38;21.90;;;20.80;;
9254;SDS011;4663;49.120;9.730;2023-06-14T12:24:05;20.35;;;19.23;;
9254;SDS011;4663;49.120;9.730;2023-06-14T12:26:32;20.48;;;19.35;;
9254;SDS011;4663;49.120;9.730;2023-06-14T12:28:58;20.73;;;19.52;;
9254;SDS011;4663;49.120;9.730;2023-06-14T12:31:23;20.20;;;19.15;;
9254;SDS011;4663;49.120;9.730;2023-06-14T12:33:49;19.67;;;18.52;;
9254;SDS011;4663;49.120;9.730;2023-06-14T12:36:15;19.88;;;18.60;;
9254;SDS011;4663;49.120;9.730;2023-06-14T12:38:42;20.55;;;19.35;;
9254;SDS011;4663;49.120;9.730;2023-06-14T12:41:08;20.90;;;19.80;;
9254;SDS011;4663;49.120;9.730;2023-06-14T12:43:33;20.38;;;19.13;;
9254;SDS011;4663;49.120;9.730;2023-06-14T12:45:59;19.73;;;18.73;;
9254;SDS011;4663;49.120;9.730;2023-06-14T12:48:25;22.27;;;21.10;;
9254;SDS011;4663;49.120;9.730;2023-06-14T12:50:52;21.52;;;20.42;;
9254;SDS011;4663;49.120;9.730;2023-06-14T12:53:17;23.55;;;22.25;;
9254;SDS011;4663;49.120;9.730;2023-06-14T12:55:43;23.10;;;21.83;;
9254;SDS011;4663;49.120;9.730;2023-06-14T12:58:08;25.65;;;24.35;;
9254;SDS011;4663;49.120;9.730;2023-06-14T13:00:34;25.23;;;23.92;;
9254;SDS011;4663;49.120;9.730;2023-06-14T13:03:00;23.83;;;22.63;;
9254;SDS011;4663;49.120;9.730;2023-06-14T13:05:25;23.27;;;22.17;;
9254;SDS011;4663;49.120;9.730;2023-06-14T13:07:51;22.73;;;21.33;;
9254;SDS011;4663;49.120;9.730;2023-06-14T13:10:16;19.17;;;18.15;;
9254;SDS011;4663;49.120;9.730;2023-06-14T13:12:42;20.05;;;19.05;;
9254;SDS011;4663;49.120;9.730;2023-06-14T13:15:08;20.73;;;19.48;;
9254;SDS011;4663;49.120;9.730;2023-06-14T13:17:34;20.27;;;18.88;;
9254;SDS011;4663;49.120;9.730;2023-06-14T13:20:04;21.95;;;20.63;;
9254;SDS011;4663;49.120;9.730;2023-06-14T13:22:30;18.20;;;17.20;;
9254;SDS011;4663;49.120;9.730;2023-06-14T13:24:56;19.50;;;18.50;;
9254;SDS011;4663;49.120;9.730;2023-06-14T13:27:21;19.75;;;18.75;;
9254;SDS011;4663;49.120;9.730;2023-06-14T13:29:46;18.95;;;17.90;;
9254;SDS011;4663;49.120;9.730;2023-06-14T13:32:12;20.33;;;19.27;;
9254;SDS011;4663;49.120;9.730;2023-06-14T13:34:37;19.70;;;18.70;;
9254;SDS011;4663;49.120;9.730;2023-06-14T13:37:02;21.95;;;20.55;;
9254;SDS011;4663;49.120;9.730;2023-06-14T13:39:28;21.50;;;20.23;;
9254;SDS011;4663;49.120;9.730;2023-06-14T13:41:53;19.95;;;18.88;;
9254;SDS011;4663;49.120;9.730;2023-06-14T13:44:19;18.30;;;17.17;;
9254;SDS011;4663;49.120;9.730;2023-06-14T13:46:46;21.90;;;20.70;;
9254;SDS011;4663;49.120;9.730;2023-06-14T13:49:12;24.88;;;23.60;;
9254;SDS011;4663;49.120;9.730;2023-06-14T13:51:37;24.80;;;22.75;;
9254;SDS011;4663;49.120;9.730;2023-06-14T13:54:03;26.65;;;25.10;;
9254;SDS011;4663;49.120;9.730;2023-06-14T13:56:29;25.52;;;24.15;;
9254;SDS011;4663;49.120;9.730;2023-06-14T13:58:55;25.92;;;24.48;;
9254;SDS011;4663;49.120;9.730;2023-06-14T14:01:21;23.13;;;21.92;;
9254;SDS011;4663;49.120;9.730;2023-06-14T14:03:46;21.73;;;20.63;;
9254;SDS011;4663;49.120;9.730;2023-06-14T14:06:13;21.83;;;20.67;;
9254;SDS011;4663;49.120;9.730;2023-06-14T14:08:38;22.63;;;21.48;;
9254;SDS011;4663;49.120;9.730;2023-06-14T14:11:04;20.77;;;19.60;;
9254;SDS011;4663;49.120;9.730;2023-06-14T14:13:31;20.98;;;19.88;;
9254;SDS011;4663;49.120;9.730;2023-06-14T14:15:56;22.23;;;21.02;;
9254;SDS011;4663;49.120;9.730;2023-06-14T14:18:23;21.98;;;20.88;;
9254;SDS011;4663;49.120;9.730;2023-06-14T14:20:48;24.65;;;23.45;;
9254;SDS011;4663;49.120;9.730;2023-06-14T14:23:14;24.35;;;23.05;;
9254;SDS011;4663;49.120;9.730;2023-06-14T14:25:39;27.38;;;25.85;;
9254;SDS011;4663;49.120;9.730;2023-06-14T14:28:05;27.33;;;25.95;;
9254;SDS011;4663;49.120;9.730;2023-06-14T14:30:31;24.27;;;22.95;;
9254;SDS011;4663;49.120;9.730;2023-06-14T14:32:56;24.90;;;23.67;;
9254;SDS011;4663;49.120;9.730;2023-06-14T14:35:21;25.73;;;24.33;;
9254;SDS011;4663;49.120;9.730;2023-06-14T14:37:49;27.92;;;26.52;;
9254;SDS011;4663;49.120;9.730;2023-06-14T14:40:14;25.23;;;24.00;;
9254;SDS011;4663;49.120;9.730;2023-06-14T14:42:40;26.80;;;25.48;;
9254;SDS011;4663;49.120;9.730;2023-06-14T14:45:05;23.02;;;21.77;;
9254;SDS011;4663;49.120;9.730;2023-06-14T14:47:31;24.33;;;23.13;;
9254;SDS011;4663;49.120;9.730;2023-06-14T14:49:56;20.85;;;19.70;;
9254;SDS011;4663;49.120;9.730;2023-06-14T14:52:22;21.17;;;19.98;;
9254;SDS011;4663;49.120;9.730;2023-06-14T14:54:47;20.55;;;19.25;;
9254;SDS011;4663;49.120;9.730;2023-06-14T14:57:12;19.63;;;18.63;;
9254;SDS011;4663;49.120;9.730;2023-06-14T14:59:38;18.52;;;17.52;;
9254;SDS011;4663;49.120;9.730;2023-06-14T15:02:03;18.90;;;17.85;;
9254;SDS011;4663;49.120;9.730;2023-06-14T15:04:29;19.45;;;18.45;;
9254;SDS011;4663;49.120;9.730;2023-06-14T15:06:54;20.15;;;19.05;;
9254;SDS011;4663;49.120;9.730;2023-06-14T15:09:20;20.05;;;19.02;;
9254;SDS011;4663;49.120;9.730;2023-06-14T15:11:45;20.83;;;19.52;;
9254;SDS011;4663;49.120;9.730;2023-06-14T15:14:10;19.88;;;18.83;;
9254;SDS011;4663;49.120;9.730;2023-06-14T15:16:36;20.45;;;19.10;;
9254;SDS011;4663;49.120;9.730;2023-06-14T15:19:02;20.67;;;19.50;;
9254;SDS011;4663;49.120;9.730;2023-06-14T15:21:27;20.20;;;18.88;;
9254;SDS011;4663;49.120;9.730;2023-06-14T15:23:53;19.63;;;18.63;;
9254;SDS011;4663;49.120;9.730;2023-06-14T15:26:18;20.05;;;19.05;;
9254;SDS011;4663;49.120;9.730;2023-06-14T15:28:44;20.23;;;19.13;;
9254;SDS011;4663;49.120;9.730;2023-06-14T15:31:10;19.27;;;18.08;;
9254;SDS011;4663;49.120;9.730;2023-06-14T15:33:35;19.40;;;18.42;;
9254;SDS011;4663;49.120;9.730;2023-06-14T15:36:00;21.23;;;20.02;;
9254;SDS011;4663;49.120;9.730;2023-06-14T15:38:26;20.33;;;18.95;;
9254;SDS011;4663;49.120;9.730;2023-06-14T15:40:51;20.73;;;19.63;;
9254;SDS011;4663;49.120;9.730;2023-06-14T15:43:17;20.23;;;19.13;;
9254;SDS011;4663;49.120;9.730;2023-06-14T15:45:42;20.73;;;19.40;;
9254;SDS011;4663;49.120;9.730;2023-06-14T15:48:09;19.92;;;18.73;;
9254;SDS011;4663;49.120;9.730;2023-06-14T15:50:34;19.20;;;17.88;;
9254;SDS011;4663;49.120;9.730;2023-06-14T15:53:01;19.45;;;18.45;;
9254;SDS011;4663;49.120;9.730;2023-06-14T15:55:26;20.27;;;19.02;;
9254;SDS011;4663;49.120;9.730;2023-06-14T15:57:52;19.67;;;18.58;;
9254;SDS011;4663;49.120;9.730;2023-06-14T16:00:17;20.10;;;19.00;;
9254;SDS011;4663;49.120;9.730;2023-06-14T16:02:43;20.60;;;19.23;;
9254;SDS011;4663;49.120;9.730;2023-06-14T16:05:09;19.80;;;18.65;;
9254;SDS011;4663;49.120;9.730;2023-06-14T16:07:34;21.45;;;20.35;;
9254;SDS011;4663;49.120;9.730;2023-06-14T16:09:59;22.40;;;21.20;;
9254;SDS011;4663;49.120;9.730;2023-06-14T16:12:25;20.55;;;19.52;;
9254;SDS011;4663;49.120;9.730;2023-06-14T16:14:50;22.73;;;21.52;;
9254;SDS011;4663;49.120;9.730;2023-06-14T16:17:16;19.67;;;18.67;;
9254;SDS011;4663;49.120;9.730;2023-06-14T16:19:42;22.02;;;20.60;;
9254;SDS011;4663;49.120;9.730;2023-06-14T16:22:08;21.67;;;20.52;;
9254;SDS011;4663;49.120;9.730;2023-06-14T16:24:33;21.98;;;20.65;;
9254;SDS011;4663;49.120;9.730;2023-06-14T16:26:58;21.20;;;20.00;;
9254;SDS011;4663;49.120;9.730;2023-06-14T16:29:24;22.25;;;21.10;;
9254;SDS011;4663;49.120;9.730;2023-06-14T16:31:49;21.98;;;20.88;;
9254;SDS011;4663;49.120;9.730;2023-06-14T16:34:14;21.15;;;20.05;;
9254;SDS011;4663;49.120;9.730;2023-06-14T16:36:40;20.67;;;19.58;;
9254;SDS011;4663;49.120;9.730;2023-06-14T16:39:07;21.48;;;20.20;;
9254;SDS011;4663;49.120;9.730;2023-06-14T16:41:33;22.73;;;21.52;;